Time;durP1;ratioP1;P1;durP2;ratioP2;P2;SDS_P1;SDS_P2;PMS_P1;PMS_P2;Temp;Humidity;BMP_temperature;BMP_pressure;BME280_temperature;BME280_humidity;BME280_pressure;Samples;Min_cycle;Max_cycle;Signal;HPM_P1;HPM_P2
2022/12/04 00:00:56;;;;;;;16.83;14.57;;;;;;;;;;5055364;28;20040;-82
2022/12/04 00:03:21;;;;;;;17.15;14.00;;;;;;;;;;5034067;28;20060;-81
2022/12/04 00:05:46;;;;;;;21.08;17.38;;;;;;;;;;5054501;28;20029;-83
2022/12/04 00:08:12;;;;;;;23.33;18.02;;;;;;;;;;5054031;28;20033;-83
2022/12/04 00:10:41;;;;;;;24.17;19.23;;;;;;;;;;5056331;28;20498;-83
2022/12/04 00:13:06;;;;;;;27.73;21.55;;;;;;;;;;5055155;28;20119;-82
2022/12/04 00:15:32;;;;;;;32.20;25.30;;;;;;;;;;5038593;28;20123;-82
2022/12/04 00:17:57;;;;;;;39.03;30.98;;;;;;;;;;5053699;28;20082;-82
2022/12/04 00:20:22;;;;;;;31.52;25.98;;;;;;;;;;5054387;28;20659;-84
2022/12/04 00:22:48;;;;;;;27.33;21.98;;;;;;;;;;5055522;28;20437;-82
2022/12/04 00:25:13;;;;;;;22.95;19.00;;;;;;;;;;5056898;28;20419;-82
2022/12/04 00:27:38;;;;;;;22.13;17.05;;;;;;;;;;5054137;28;20055;-82
2022/12/04 00:30:04;;;;;;;20.27;15.35;;;;;;;;;;5055675;28;20040;-83
2022/12/04 00:32:29;;;;;;;22.20;17.27;;;;;;;;;;5045956;28;20392;-83
2022/12/04 00:34:55;;;;;;;30.05;22.88;;;;;;;;;;5051027;28;20028;-83
2022/12/04 00:37:20;;;;;;;32.15;23.05;;;;;;;;;;5053477;28;20057;-83
2022/12/04 00:39:45;;;;;;;31.35;24.90;;;;;;;;;;5054446;28;20416;-82
2022/12/04 00:42:11;;;;;;;34.28;24.60;;;;;;;;;;5056003;28;20333;-82
2022/12/04 00:44:36;;;;;;;35.15;27.45;;;;;;;;;;5053087;28;20032;-83
2022/12/04 00:47:01;;;;;;;40.42;30.73;;;;;;;;;;5035295;28;20040;-83
2022/12/04 00:49:27;;;;;;;37.00;28.15;;;;;;;;;;5057326;28;20036;-82
2022/12/04 00:51:52;;;;;;;51.65;36.65;;;;;;;;;;5055224;28;20025;-83
2022/12/04 00:54:17;;;;;;;68.47;49.20;;;;;;;;;;5056202;28;20029;-82
2022/12/04 00:56:42;;;;;;;59.30;44.22;;;;;;;;;;5056696;28;20032;-82
2022/12/04 00:59:09;;;;;;;53.20;39.50;;;;;;;;;;5056550;28;20037;-82
2022/12/04 01:01:34;;;;;;;38.08;27.02;;;;;;;;;;5055858;28;20025;-82
2022/12/04 01:04:00;;;;;;;20.20;16.10;;;;;;;;;;5057965;28;20463;-82
2022/12/04 01:06:26;;;;;;;17.52;13.18;;;;;;;;;;5059147;28;20020;-82
2022/12/04 01:08:52;;;;;;;13.50;11.50;;;;;;;;;;5056741;28;20036;-83
2022/12/04 01:11:19;;;;;;;28.63;24.63;;;;;;;;;;5057153;28;20057;-82
2022/12/04 01:13:44;;;;;;;35.45;28.90;;;;;;;;;;5055797;28;20146;-82
2022/12/04 01:16:20;;;;;;;24.00;19.60;;;;;;;;;;5056558;28;20423;-82
2022/12/04 01:18:46;;;;;;;29.95;24.08;;;;;;;;;;5057194;28;20186;-82
2022/12/04 01:21:11;;;;;;;30.23;23.17;;;;;;;;;;5059881;28;20499;-82
2022/12/04 01:23:36;;;;;;;21.77;17.48;;;;;;;;;;5057844;28;20400;-82
2022/12/04 01:26:02;;;;;;;14.55;12.43;;;;;;;;;;5054885;28;20034;-83
2022/12/04 01:28:27;;;;;;;12.38;11.07;;;;;;;;;;5055926;28;20083;-81
2022/12/04 01:30:57;;;;;;;15.07;12.45;;;;;;;;;;5058292;28;20127;-81
2022/12/04 01:33:22;;;;;;;16.63;12.75;;;;;;;;;;5056505;28;20036;-81
2022/12/04 01:35:54;;;;;;;31.33;23.65;;;;;;;;;;5056103;28;20029;-81
2022/12/04 01:38:20;;;;;;;40.55;32.10;;;;;;;;;;5056160;28;20024;-79
2022/12/04 01:40:45;;;;;;;51.85;42.60;;;;;;;;;;5053913;28;20040;-81
2022/12/04 01:43:11;;;;;;;69.93;54.25;;;;;;;;;;5058494;28;20029;-80
2022/12/04 01:45:39;;;;;;;42.72;34.05;;;;;;;;;;5057993;28;20028;-82
2022/12/04 01:48:09;;;;;;;36.55;27.83;;;;;;;;;;5054468;28;20041;-82
2022/12/04 01:50:35;;;;;;;42.67;32.35;;;;;;;;;;5057235;28;20491;-81
2022/12/04 01:53:00;;;;;;;33.22;25.85;;;;;;;;;;5058672;28;20107;-82
2022/12/04 01:55:26;;;;;;;131.93;67.35;;;;;;;;;;5053844;28;20044;-82
2022/12/04 01:57:51;;;;;;;151.48;78.43;;;;;;;;;;5056987;28;20107;-84
2022/12/04 02:00:16;;;;;;;48.60;28.40;;;;;;;;;;5056327;28;20025;-83
2022/12/04 02:02:43;;;;;;;61.13;33.70;;;;;;;;;;5045426;28;21099;-81
2022/12/04 02:05:10;;;;;;;64.78;37.35;;;;;;;;;;5046657;28;20041;-82
2022/12/04 02:07:37;;;;;;;25.77;17.08;;;;;;;;;;5049611;28;20035;-84
2022/12/04 02:10:05;;;;;;;84.20;48.53;;;;;;;;;;5046660;28;20040;-83
2022/12/04 02:12:53;;;;;;;60.72;36.80;;;;;;;;;;5055194;28;20395;-84
2022/12/04 02:15:24;;;;;;;32.90;24.20;;;;;;;;;;5056408;28;20016;-83
2022/12/04 02:17:57;;;;;;;28.13;22.58;;;;;;;;;;5057426;28;20438;-84
2022/12/04 02:20:35;;;;;;;34.50;27.67;;;;;;;;;;5049980;28;20025;-83
2022/12/04 02:23:10;;;;;;;34.25;26.35;;;;;;;;;;5052573;28;20013;-81
2022/12/04 02:25:41;;;;;;;33.05;25.45;;;;;;;;;;5049804;28;20123;-85
2022/12/04 02:28:11;;;;;;;69.60;50.28;;;;;;;;;;5039990;28;20036;-86
2022/12/04 02:30:39;;;;;;;60.30;44.55;;;;;;;;;;5056064;28;20031;-86
2022/12/04 02:33:10;;;;;;;45.90;33.58;;;;;;;;;;5055588;28;20387;-84
2022/12/04 02:35:41;;;;;;;35.85;25.50;;;;;;;;;;5035897;28;20141;-82
2022/12/04 02:38:22;;;;;;;143.68;88.82;;;;;;;;;;5054297;28;20032;-83
2022/12/04 02:40:55;;;;;;;126.20;78.95;;;;;;;;;;5059748;28;20465;-84
2022/12/04 02:43:28;;;;;;;67.13;42.70;;;;;;;;;;5056962;28;20021;-84
2022/12/04 02:45:59;;;;;;;80.65;51.00;;;;;;;;;;5058509;28;20469;-84
2022/12/04 02:48:27;;;;;;;70.38;44.67;;;;;;;;;;5056725;28;20435;-84
2022/12/04 02:50:53;;;;;;;51.85;36.28;;;;;;;;;;5039318;28;20029;-81
2022/12/04 02:53:20;;;;;;;42.10;27.30;;;;;;;;;;5056061;28;20039;-82
2022/12/04 02:55:49;;;;;;;33.63;22.13;;;;;;;;;;5055921;28;20023;-83
2022/12/04 02:58:19;;;;;;;43.20;29.15;;;;;;;;;;5058123;28;20060;-83
2022/12/04 03:00:46;;;;;;;46.38;30.25;;;;;;;;;;5051051;28;20124;-83
2022/12/04 03:03:17;;;;;;;89.75;65.75;;;;;;;;;;5053427;28;20082;-85
2022/12/04 03:05:47;;;;;;;63.50;48.10;;;;;;;;;;5057186;28;20020;-82
2022/12/04 03:08:15;;;;;;;46.53;36.90;;;;;;;;;;5057662;28;20063;-83
2022/12/04 03:10:53;;;;;;;32.60;26.98;;;;;;;;;;5055554;28;20107;-82
2022/12/04 03:13:25;;;;;;;32.17;27.27;;;;;;;;;;5055888;28;20380;-82
2022/12/04 03:15:57;;;;;;;33.20;25.52;;;;;;;;;;5051278;28;20066;-82
2022/12/04 03:18:29;;;;;;;55.20;34.88;;;;;;;;;;5057785;28;20029;-84
2022/12/04 03:20:58;;;;;;;56.42;39.75;;;;;;;;;;5055104;28;20028;-82
2022/12/04 03:23:34;;;;;;;26.77;20.73;;;;;;;;;;5039192;28;20024;-82
2022/12/04 03:26:02;;;;;;;31.15;24.27;;;;;;;;;;5041601;28;20118;-82
2022/12/04 03:28:53;;;;;;;31.60;23.75;;;;;;;;;;5055966;28;20032;-83
2022/12/04 03:31:21;;;;;;;24.58;19.48;;;;;;;;;;5015272;28;20047;-83
2022/12/04 03:33:47;;;;;;;12.40;10.80;;;;;;;;;;5056798;28;20040;-82
2022/12/04 03:36:22;;;;;;;8.93;8.02;;;;;;;;;;5053283;28;20032;-83
2022/12/04 03:38:57;;;;;;;11.93;9.63;;;;;;;;;;5055613;28;20044;-84
2022/12/04 03:41:26;;;;;;;14.43;12.18;;;;;;;;;;5054147;28;20029;-84
2022/12/04 03:44:05;;;;;;;18.20;14.73;;;;;;;;;;5056570;28;20029;-84
2022/12/04 03:46:34;;;;;;;20.55;17.38;;;;;;;;;;5055079;28;20059;-85
2022/12/04 03:49:14;;;;;;;29.77;23.95;;;;;;;;;;5054430;28;20037;-84
2022/12/04 03:51:42;;;;;;;39.75;30.42;;;;;;;;;;5052995;28;20041;-83
2022/12/04 03:54:11;;;;;;;30.90;23.65;;;;;;;;;;5053150;28;21001;-82
2022/12/04 03:56:42;;;;;;;29.85;23.75;;;;;;;;;;5054643;28;20111;-83
2022/12/04 03:59:11;;;;;;;35.67;29.05;;;;;;;;;;5053190;28;20462;-82
2022/12/04 04:01:42;;;;;;;36.25;29.33;;;;;;;;;;5051276;28;20021;-84
2022/12/04 04:04:11;;;;;;;38.35;30.67;;;;;;;;;;5051372;28;20044;-83
2022/12/04 04:06:38;;;;;;;31.85;27.10;;;;;;;;;;5054807;28;20434;-84
2022/12/04 04:09:09;;;;;;;17.92;15.40;;;;;;;;;;5050698;28;20059;-83
2022/12/04 04:11:45;;;;;;;13.80;11.40;;;;;;;;;;5055048;28;20040;-82
2022/12/04 04:25:20;;;;;;;39.70;31.70;;;;;;;;;;5051963;28;20459;-82
2022/12/04 04:27:55;;;;;;;38.80;32.67;;;;;;;;;;5057299;28;20036;-82
2022/12/04 04:30:20;;;;;;;36.72;30.00;;;;;;;;;;5058449;28;20047;-82
2022/12/04 04:32:48;;;;;;;41.67;32.80;;;;;;;;;;5058797;28;20025;-83
2022/12/04 04:35:19;;;;;;;34.50;28.75;;;;;;;;;;5057381;28;20024;-83
2022/12/04 04:37:50;;;;;;;21.98;17.92;;;;;;;;;;5057153;28;20080;-83
2022/12/04 04:40:16;;;;;;;30.35;23.73;;;;;;;;;;5059083;28;20427;-82
2022/12/04 04:42:58;;;;;;;62.55;48.50;;;;;;;;;;5056461;28;20086;-81
2022/12/04 04:45:39;;;;;;;107.60;81.38;;;;;;;;;;5056720;28;20028;-83
2022/12/04 04:48:06;;;;;;;99.75;78.05;;;;;;;;;;5057703;28;20475;-84
2022/12/04 04:50:33;;;;;;;91.72;66.15;;;;;;;;;;5054644;28;20036;-83
2022/12/04 04:53:03;;;;;;;66.30;50.78;;;;;;;;;;5058186;28;20038;-82
2022/12/04 04:55:33;;;;;;;37.50;30.33;;;;;;;;;;5058958;28;20100;-83
2022/12/04 04:58:08;;;;;;;18.30;16.33;;;;;;;;;;5054020;28;21014;-83
2022/12/04 05:00:34;;;;;;;16.40;14.75;;;;;;;;;;5055851;28;20786;-83
2022/12/04 05:03:00;;;;;;;12.70;11.40;;;;;;;;;;5053010;28;20128;-86
2022/12/04 05:05:25;;;;;;;13.20;9.93;;;;;;;;;;5053321;28;20099;-83
2022/12/04 05:07:50;;;;;;;32.97;27.45;;;;;;;;;;5056947;28;20064;-82
2022/12/04 05:10:16;;;;;;;33.92;26.83;;;;;;;;;;5055283;28;20056;-83
2022/12/04 05:12:41;;;;;;;35.90;28.35;;;;;;;;;;5057068;28;20086;-85
2022/12/04 05:15:07;;;;;;;32.17;26.95;;;;;;;;;;5058334;28;20111;-84
2022/12/04 05:17:33;;;;;;;33.42;27.85;;;;;;;;;;5049574;28;20115;-82
2022/12/04 05:19:59;;;;;;;30.23;25.70;;;;;;;;;;5053569;28;20083;-81
2022/12/04 05:22:28;;;;;;;26.13;21.05;;;;;;;;;;5058289;28;20355;-81
2022/12/04 05:24:54;;;;;;;23.58;18.50;;;;;;;;;;5056856;28;20032;-83
2022/12/04 05:27:20;;;;;;;87.32;55.15;;;;;;;;;;5056858;28;20024;-83
2022/12/04 05:29:45;;;;;;;37.75;27.50;;;;;;;;;;5058557;28;20541;-83
2022/12/04 05:32:11;;;;;;;24.98;19.52;;;;;;;;;;5037065;28;20229;-84
2022/12/04 05:34:36;;;;;;;12.63;10.88;;;;;;;;;;5056795;28;20024;-83
2022/12/04 05:37:01;;;;;;;11.60;10.40;;;;;;;;;;5056471;28;20528;-82
2022/12/04 05:39:27;;;;;;;11.93;9.68;;;;;;;;;;5054925;28;20074;-84
2022/12/04 05:41:52;;;;;;;10.98;8.50;;;;;;;;;;5039428;28;20110;-83
2022/12/04 05:44:17;;;;;;;9.80;8.68;;;;;;;;;;5047807;28;20040;-82
2022/12/04 05:46:43;;;;;;;11.82;9.32;;;;;;;;;;5042090;28;20017;-78
2022/12/04 05:49:08;;;;;;;10.90;9.68;;;;;;;;;;5043467;28;20038;-79
2022/12/04 05:51:33;;;;;;;26.08;22.05;;;;;;;;;;5043363;28;20052;-81
2022/12/04 05:53:59;;;;;;;32.17;27.02;;;;;;;;;;5042751;28;20593;-78
2022/12/04 05:56:24;;;;;;;39.30;31.02;;;;;;;;;;5045776;28;20029;-77
2022/12/04 05:58:49;;;;;;;54.40;42.63;;;;;;;;;;5056009;28;20152;-76
2022/12/04 06:01:19;;;;;;;42.17;33.20;;;;;;;;;;5045206;28;20036;-77
2022/12/04 06:03:45;;;;;;;39.15;31.90;;;;;;;;;;5045778;28;20029;-77
2022/12/04 06:06:14;;;;;;;21.27;18.20;;;;;;;;;;5043268;28;20050;-76
2022/12/04 06:08:39;;;;;;;23.15;18.45;;;;;;;;;;5052178;28;20720;-76
2022/12/04 06:11:12;;;;;;;51.53;40.17;;;;;;;;;;5057687;28;20052;-77
2022/12/04 06:13:38;;;;;;;46.88;36.85;;;;;;;;;;5044550;28;20025;-78
2022/12/04 06:16:04;;;;;;;26.25;19.15;;;;;;;;;;5046727;28;20051;-76
2022/12/04 06:18:29;;;;;;;17.15;12.90;;;;;;;;;;5054852;28;20052;-77
2022/12/04 06:20:56;;;;;;;44.10;34.97;;;;;;;;;;5056545;28;20051;-81
2022/12/04 06:23:22;;;;;;;54.95;42.75;;;;;;;;;;5055736;28;20029;-76
2022/12/04 06:25:47;;;;;;;69.43;52.30;;;;;;;;;;5056109;28;20044;-77
2022/12/04 06:28:12;;;;;;;67.88;53.70;;;;;;;;;;5056110;28;20090;-75
2022/12/04 06:30:38;;;;;;;51.53;41.17;;;;;;;;;;5053319;28;20067;-76
2022/12/04 06:33:03;;;;;;;50.67;38.10;;;;;;;;;;5046726;28;20029;-77
2022/12/04 06:35:28;;;;;;;52.67;40.67;;;;;;;;;;5057015;28;20086;-76
2022/12/04 06:37:54;;;;;;;41.58;33.35;;;;;;;;;;5057160;28;20031;-77
2022/12/04 06:40:19;;;;;;;52.30;39.00;;;;;;;;;;5052409;28;20074;-77
2022/12/04 06:42:44;;;;;;;36.97;31.70;;;;;;;;;;5055074;28;20052;-77
2022/12/04 06:45:10;;;;;;;31.08;26.30;;;;;;;;;;5056281;28;20613;-77
2022/12/04 06:47:35;;;;;;;33.22;27.40;;;;;;;;;;5053188;28;20430;-75
2022/12/04 06:50:01;;;;;;;38.50;30.60;;;;;;;;;;5055372;28;20033;-76
2022/12/04 06:52:26;;;;;;;43.45;37.35;;;;;;;;;;5052863;28;20031;-82
2022/12/04 06:54:51;;;;;;;29.33;24.50;;;;;;;;;;5054592;28;20126;-76
2022/12/04 06:57:17;;;;;;;31.80;27.40;;;;;;;;;;5052980;28;20439;-74
2022/12/04 06:59:42;;;;;;;106.60;85.22;;;;;;;;;;5057070;28;20028;-73
2022/12/04 07:02:08;;;;;;;68.63;53.85;;;;;;;;;;5051874;28;20086;-76
2022/12/04 07:04:33;;;;;;;43.10;34.83;;;;;;;;;;5048173;28;20086;-71
2022/12/04 07:06:59;;;;;;;61.97;45.70;;;;;;;;;;5052961;28;20254;-75
2022/12/04 07:09:24;;;;;;;106.88;72.53;;;;;;;;;;5046913;28;20125;-73
2022/12/04 07:11:49;;;;;;;113.38;78.85;;;;;;;;;;5043622;28;20457;-76
2022/12/04 07:14:15;;;;;;;61.97;46.42;;;;;;;;;;5047152;28;20122;-73
2022/12/04 07:16:41;;;;;;;33.03;25.17;;;;;;;;;;5050937;28;20059;-73
2022/12/04 07:19:07;;;;;;;244.55;159.52;;;;;;;;;;5044186;28;20881;-74
2022/12/04 07:21:33;;;;;;;137.80;98.55;;;;;;;;;;5050116;28;20119;-74
2022/12/04 07:23:59;;;;;;;129.80;93.95;;;;;;;;;;5050457;28;20028;-73
2022/12/04 07:26:25;;;;;;;109.00;76.72;;;;;;;;;;5052345;28;20020;-74
2022/12/04 07:28:51;;;;;;;94.70;70.15;;;;;;;;;;5050679;28;20023;-74
2022/12/04 07:31:17;;;;;;;45.60;36.38;;;;;;;;;;5053015;28;20043;-73
2022/12/04 07:33:43;;;;;;;42.88;34.05;;;;;;;;;;5051752;28;20033;-73
2022/12/04 07:36:10;;;;;;;39.83;31.52;;;;;;;;;;5053363;28;20029;-75
2022/12/04 07:38:35;;;;;;;38.72;30.38;;;;;;;;;;5053133;28;20033;-74
2022/12/04 07:41:02;;;;;;;28.52;18.42;;;;;;;;;;5053084;28;20035;-73
2022/12/04 07:43:28;;;;;;;86.45;51.00;;;;;;;;;;5053213;28;20103;-75
2022/12/04 07:45:53;;;;;;;83.80;50.75;;;;;;;;;;5053969;28;20127;-75
2022/12/04 07:48:19;;;;;;;69.32;45.22;;;;;;;;;;5052607;28;20024;-73
2022/12/04 07:50:44;;;;;;;37.13;27.77;;;;;;;;;;5054115;28;20028;-75
2022/12/04 07:53:10;;;;;;;102.75;70.63;;;;;;;;;;5053513;28;20032;-73
2022/12/04 07:55:35;;;;;;;49.33;37.72;;;;;;;;;;5053962;28;20029;-74
2022/12/04 07:58:00;;;;;;;52.25;37.08;;;;;;;;;;5053805;28;20033;-73
2022/12/04 08:00:26;;;;;;;179.23;109.35;;;;;;;;;;5052855;28;20053;-76
2022/12/04 08:02:51;;;;;;;57.03;39.53;;;;;;;;;;5052123;28;20039;-74
2022/12/04 08:05:16;;;;;;;67.88;37.13;;;;;;;;;;5058503;28;20090;-75
2022/12/04 08:07:42;;;;;;;83.85;46.08;;;;;;;;;;5060008;28;20036;-74
2022/12/04 08:10:07;;;;;;;175.30;91.97;;;;;;;;;;5057313;28;20071;-73
2022/12/04 08:12:33;;;;;;;444.10;252.70;;;;;;;;;;5056030;28;20032;-74
2022/12/04 08:14:58;;;;;;;224.70;125.53;;;;;;;;;;5055040;28;20024;-73
2022/12/04 08:17:23;;;;;;;57.40;35.20;;;;;;;;;;5055292;28;20064;-74
2022/12/04 08:19:49;;;;;;;16.08;12.10;;;;;;;;;;5059014;28;20013;-73
2022/12/04 08:22:14;;;;;;;45.60;26.52;;;;;;;;;;5057905;28;20428;-74
2022/12/04 08:24:39;;;;;;;28.42;17.00;;;;;;;;;;5058185;28;20435;-73
2022/12/04 08:27:05;;;;;;;71.05;43.83;;;;;;;;;;5054888;28;20048;-73
2022/12/04 08:29:30;;;;;;;26.60;17.75;;;;;;;;;;5059665;28;20032;-74
2022/12/04 08:31:55;;;;;;;226.57;136.07;;;;;;;;;;5054978;28;20020;-74
2022/12/04 08:34:21;;;;;;;107.78;64.25;;;;;;;;;;5058316;28;20037;-73
2022/12/04 08:36:46;;;;;;;134.85;77.63;;;;;;;;;;5058396;28;20037;-73
2022/12/04 08:39:12;;;;;;;26.88;17.38;;;;;;;;;;5056532;28;20126;-75
2022/12/04 08:41:38;;;;;;;25.40;15.30;;;;;;;;;;5058248;28;20027;-74
2022/12/04 08:44:03;;;;;;;56.47;31.52;;;;;;;;;;5054931;28;20339;-73
2022/12/04 08:46:29;;;;;;;83.55;48.20;;;;;;;;;;5050242;28;20020;-74
2022/12/04 08:48:55;;;;;;;50.75;30.73;;;;;;;;;;5053733;28;20431;-73
2022/12/04 08:51:21;;;;;;;115.00;72.00;;;;;;;;;;5054811;28;20021;-73
2022/12/04 08:53:47;;;;;;;55.58;38.20;;;;;;;;;;5055791;28;20163;-74
2022/12/04 08:56:12;;;;;;;10.95;8.70;;;;;;;;;;5052103;28;20120;-73
2022/12/04 08:58:38;;;;;;;14.73;9.60;;;;;;;;;;5053342;28;20029;-74
2022/12/04 09:01:07;;;;;;;52.95;34.42;;;;;;;;;;5053842;28;20032;-73
2022/12/04 09:03:33;;;;;;;18.77;15.27;;;;;;;;;;5054576;28;20040;-72
2022/12/04 09:05:58;;;;;;;8.15;6.07;;;;;;;;;;5051218;28;20133;-73
2022/12/04 09:08:24;;;;;;;27.05;18.98;;;;;;;;;;5053606;28;20028;-74
2022/12/04 09:10:49;;;;;;;7.18;6.38;;;;;;;;;;5055223;28;20037;-73
2022/12/04 09:13:14;;;;;;;9.25;7.22;;;;;;;;;;5053123;28;20067;-75
2022/12/04 09:15:40;;;;;;;22.83;13.38;;;;;;;;;;5055941;28;20568;-74
2022/12/04 09:18:06;;;;;;;18.60;15.15;;;;;;;;;;5056536;28;20041;-75
2022/12/04 09:20:31;;;;;;;8.45;7.22;;;;;;;;;;5057398;28;20024;-71
2022/12/04 09:22:57;;;;;;;8.18;6.47;;;;;;;;;;5057213;28;20023;-73
2022/12/04 09:25:22;;;;;;;14.38;10.05;;;;;;;;;;5055648;28;20029;-73
2022/12/04 09:27:47;;;;;;;4.82;4.28;;;;;;;;;;5056910;28;20081;-74
2022/12/04 09:30:13;;;;;;;7.30;5.80;;;;;;;;;;5057908;28;20024;-73
2022/12/04 09:32:38;;;;;;;41.13;32.05;;;;;;;;;;5058293;28;20025;-72
2022/12/04 09:35:04;;;;;;;16.77;14.55;;;;;;;;;;5056582;28;20024;-73
2022/12/04 09:37:31;;;;;;;36.88;29.83;;;;;;;;;;5056704;28;20406;-75
2022/12/04 09:39:56;;;;;;;50.83;39.15;;;;;;;;;;5056356;28;20120;-75
2022/12/04 09:42:26;;;;;;;6.70;5.63;;;;;;;;;;5056879;28;20108;-75
2022/12/04 09:44:56;;;;;;;3.13;2.72;;;;;;;;;;5056177;28;20083;-73
2022/12/04 09:47:37;;;;;;;7.80;6.70;;;;;;;;;;5056015;28;20028;-74
2022/12/04 09:50:09;;;;;;;9.05;7.20;;;;;;;;;;5054154;28;20103;-74
2022/12/04 09:52:37;;;;;;;16.40;9.48;;;;;;;;;;5057342;28;20091;-71
2022/12/04 09:55:03;;;;;;;39.13;28.80;;;;;;;;;;5055369;28;20025;-75
2022/12/04 09:57:35;;;;;;;20.45;14.85;;;;;;;;;;5053941;28;20029;-73
2022/12/04 10:00:03;;;;;;;24.38;16.15;;;;;;;;;;5054418;28;20066;-73
2022/12/04 10:02:31;;;;;;;16.90;13.20;;;;;;;;;;5057340;28;20028;-73
2022/12/04 10:04:57;;;;;;;27.05;19.50;;;;;;;;;;5057375;28;20029;-73
2022/12/04 10:07:28;;;;;;;28.02;18.80;;;;;;;;;;5055843;28;20027;-75
2022/12/04 10:10:02;;;;;;;16.45;12.40;;;;;;;;;;5056376;28;20139;-74
2022/12/04 10:12:46;;;;;;;17.17;13.50;;;;;;;;;;5058012;28;20324;-71
2022/12/04 10:15:17;;;;;;;14.52;10.77;;;;;;;;;;5057621;28;20029;-75
2022/12/04 10:17:58;;;;;;;18.15;14.15;;;;;;;;;;5057057;28;20119;-75
2022/12/04 10:20:37;;;;;;;41.75;28.95;;;;;;;;;;5053524;28;20091;-73
2022/12/04 10:23:21;;;;;;;14.52;11.35;;;;;;;;;;5054990;28;20017;-73
2022/12/04 10:25:48;;;;;;;18.80;14.50;;;;;;;;;;5057077;28;20017;-74
2022/12/04 10:28:28;;;;;;;9.25;8.30;;;;;;;;;;5056446;28;20033;-73
2022/12/04 10:30:56;;;;;;;11.40;9.88;;;;;;;;;;5055358;28;20489;-74
2022/12/04 10:33:26;;;;;;;9.68;8.55;;;;;;;;;;5057864;28;20115;-74
2022/12/04 10:35:53;;;;;;;10.02;8.35;;;;;;;;;;5056951;28;20367;-73
2022/12/04 10:38:37;;;;;;;6.85;6.18;;;;;;;;;;5056632;28;20090;-73
2022/12/04 10:41:11;;;;;;;4.25;3.85;;;;;;;;;;5056802;28;20029;-74
2022/12/04 10:43:44;;;;;;;6.78;6.07;;;;;;;;;;5056969;28;20029;-73
2022/12/04 10:46:20;;;;;;;11.32;7.28;;;;;;;;;;5057380;28;20074;-74
2022/12/04 10:48:46;;;;;;;17.70;10.05;;;;;;;;;;5054546;28;20063;-71
2022/12/04 10:51:14;;;;;;;14.63;8.75;;;;;;;;;;5056629;28;20029;-76
2022/12/04 10:53:39;;;;;;;37.67;20.40;;;;;;;;;;5055992;28;20040;-73
2022/12/04 10:56:24;;;;;;;28.23;16.40;;;;;;;;;;5056603;28;20032;-73
2022/12/04 10:58:59;;;;;;;4.57;3.70;;;;;;;;;;5053984;28;20039;-75
2022/12/04 11:01:25;;;;;;;8.98;6.78;;;;;;;;;;5054308;28;20020;-74
2022/12/04 11:04:03;;;;;;;5.03;4.53;;;;;;;;;;5055340;28;20402;-74
2022/12/04 11:06:29;;;;;;;3.65;3.33;;;;;;;;;;5055000;28;20036;-73
2022/12/04 11:08:54;;;;;;;3.45;2.92;;;;;;;;;;5057066;28;20024;-73
2022/12/04 11:11:27;;;;;;;6.38;5.50;;;;;;;;;;5057140;28;20052;-74
2022/12/04 11:14:11;;;;;;;14.27;9.40;;;;;;;;;;5056235;28;20040;-74
2022/12/04 11:16:38;;;;;;;22.35;16.23;;;;;;;;;;5053376;28;20021;-73
2022/12/04 11:19:18;;;;;;;6.38;5.72;;;;;;;;;;5033865;28;20414;-75
2022/12/04 11:21:43;;;;;;;12.70;8.65;;;;;;;;;;5055471;28;20040;-74
2022/12/04 11:24:16;;;;;;;8.15;6.65;;;;;;;;;;5056941;28;20033;-74
2022/12/04 11:26:42;;;;;;;10.38;8.73;;;;;;;;;;5056315;28;20151;-74
2022/12/04 11:29:13;;;;;;;13.40;10.73;;;;;;;;;;5055661;28;20060;-71
2022/12/04 11:31:39;;;;;;;8.65;6.80;;;;;;;;;;5055637;28;20059;-75
2022/12/04 11:34:06;;;;;;;2.65;2.25;;;;;;;;;;5054874;28;20064;-73
2022/12/04 11:36:39;;;;;;;5.18;4.53;;;;;;;;;;5049759;28;20039;-74
2022/12/04 11:39:11;;;;;;;9.98;7.70;;;;;;;;;;5056435;28;20505;-74
2022/12/04 11:41:36;;;;;;;16.83;11.15;;;;;;;;;;5057697;28;20051;-74
2022/12/04 11:44:04;;;;;;;6.72;5.00;;;;;;;;;;5055885;28;20432;-74
2022/12/04 11:46:30;;;;;;;13.23;8.82;;;;;;;;;;5054457;28;20024;-76
2022/12/04 11:48:55;;;;;;;6.78;6.07;;;;;;;;;;5055280;28;20040;-75
2022/12/04 11:51:54;;;;;;;16.83;9.88;;;;;;;;;;5057568;28;20454;-74
2022/12/04 11:54:37;;;;;;;17.58;10.90;;;;;;;;;;5029966;28;20043;-76
2022/12/04 11:57:06;;;;;;;12.05;6.93;;;;;;;;;;5052451;28;20059;-74
2022/12/04 11:59:31;;;;;;;11.63;7.72;;;;;;;;;;5055497;28;20090;-73
2022/12/04 12:01:56;;;;;;;10.30;9.07;;;;;;;;;;5054503;28;20452;-74
2022/12/04 12:04:40;;;;;;;10.40;9.25;;;;;;;;;;5054914;28;20036;-74
2022/12/04 12:07:08;;;;;;;7.30;6.45;;;;;;;;;;5053360;28;20335;-72
2022/12/04 12:09:47;;;;;;;5.15;4.65;;;;;;;;;;5055046;28;21157;-74
2022/12/04 12:12:24;;;;;;;3.55;3.00;;;;;;;;;;5056662;28;20041;-74
2022/12/04 12:15:07;;;;;;;4.72;4.32;;;;;;;;;;5056165;28;20036;-73
2022/12/04 12:17:42;;;;;;;3.33;3.03;;;;;;;;;;5056633;28;20020;-73
2022/12/04 12:20:12;;;;;;;3.45;3.15;;;;;;;;;;5055350;28;20051;-74
2022/12/04 12:22:40;;;;;;;2.20;2.00;;;;;;;;;;5055114;28;20482;-75
2022/12/04 12:25:15;;;;;;;4.22;3.83;;;;;;;;;;5053828;28;20032;-73
2022/12/04 12:27:43;;;;;;;4.43;4.03;;;;;;;;;;5056419;28;20439;-74
2022/12/04 12:30:13;;;;;;;3.20;2.90;;;;;;;;;;5054246;28;20427;-73
2022/12/04 12:32:47;;;;;;;3.47;3.17;;;;;;;;;;5055853;28;20389;-75
2022/12/04 12:35:25;;;;;;;2.67;2.22;;;;;;;;;;5054225;28;20391;-74
2022/12/04 12:37:56;;;;;;;4.80;4.03;;;;;;;;;;5053351;28;20037;-74
2022/12/04 12:40:25;;;;;;;4.35;3.60;;;;;;;;;;5050837;28;20028;-74
2022/12/04 12:43:00;;;;;;;2.22;2.03;;;;;;;;;;5053471;28;20111;-74
2022/12/04 12:45:25;;;;;;;5.70;5.05;;;;;;;;;;5054469;28;20116;-75
2022/12/04 12:47:54;;;;;;;2.97;2.75;;;;;;;;;;5054110;28;20128;-73
2022/12/04 12:50:25;;;;;;;2.28;2.08;;;;;;;;;;5057978;28;20074;-74
2022/12/04 12:52:56;;;;;;;3.03;2.80;;;;;;;;;;5059524;28;20039;-73
2022/12/04 12:55:23;;;;;;;4.57;4.15;;;;;;;;;;5058098;28;20028;-73
2022/12/04 12:57:55;;;;;;;3.55;3.25;;;;;;;;;;5055882;28;20031;-74
2022/12/04 13:00:21;;;;;;;5.93;4.80;;;;;;;;;;5060881;28;20074;-73
2022/12/04 13:02:56;;;;;;;13.60;8.98;;;;;;;;;;5056294;28;20125;-73
2022/12/04 13:05:25;;;;;;;4.57;3.78;;;;;;;;;;5058946;28;21087;-74
2022/12/04 13:07:59;;;;;;;6.35;5.28;;;;;;;;;;5058439;28;20029;-74
2022/12/04 13:10:36;;;;;;;4.50;3.67;;;;;;;;;;5057664;28;20053;-75
2022/12/04 13:13:05;;;;;;;8.13;6.80;;;;;;;;;;5058567;28;20519;-73
2022/12/04 13:15:39;;;;;;;5.00;4.18;;;;;;;;;;5058715;28;20127;-73
2022/12/04 13:18:07;;;;;;;12.60;8.80;;;;;;;;;;5056861;28;20028;-74
2022/12/04 13:20:36;;;;;;;17.02;12.10;;;;;;;;;;5057257;28;20020;-75
2022/12/04 13:23:18;;;;;;;13.32;9.00;;;;;;;;;;5056101;28;20351;-75
2022/12/04 13:25:45;;;;;;;13.40;8.85;;;;;;;;;;5040069;28;20350;-73
2022/12/04 13:28:16;;;;;;;15.30;9.82;;;;;;;;;;5058293;28;20044;-74
2022/12/04 13:31:11;;;;;;;18.80;12.70;;;;;;;;;;5056231;28;20131;-74
2022/12/04 13:33:58;;;;;;;11.07;8.18;;;;;;;;;;5039655;28;20045;-74
2022/12/04 13:36:26;;;;;;;5.60;5.00;;;;;;;;;;5057606;28;20439;-75
2022/12/04 13:38:58;;;;;;;4.13;3.55;;;;;;;;;;5056535;28;20047;-74
2022/12/04 13:41:24;;;;;;;3.55;3.25;;;;;;;;;;5037836;28;20033;-73
2022/12/04 13:43:50;;;;;;;3.38;3.08;;;;;;;;;;5056831;28;20827;-74
2022/12/04 13:46:36;;;;;;;2.90;2.60;;;;;;;;;;5059808;28;20075;-74
2022/12/04 13:49:08;;;;;;;4.88;4.28;;;;;;;;;;5055362;28;20045;-73
2022/12/04 13:51:40;;;;;;;2.15;2.05;;;;;;;;;;5057086;28;20417;-73
2022/12/04 13:54:11;;;;;;;2.88;1.90;;;;;;;;;;5057514;28;20449;-73
2022/12/04 13:56:41;;;;;;;3.17;2.80;;;;;;;;;;5055907;28;20112;-74
2022/12/04 13:59:31;;;;;;;4.80;3.60;;;;;;;;;;5055823;28;20028;-73
2022/12/04 14:01:58;;;;;;;2.95;2.65;;;;;;;;;;5053823;28;20159;-74
2022/12/04 14:04:23;;;;;;;3.47;3.17;;;;;;;;;;5058302;28;20325;-73
2022/12/04 14:06:49;;;;;;;6.55;4.75;;;;;;;;;;5057861;28;20094;-73
2022/12/04 14:09:24;;;;;;;3.63;2.65;;;;;;;;;;5056394;28;20025;-73
2022/12/04 14:11:52;;;;;;;2.28;1.88;;;;;;;;;;5056566;28;20020;-75
2022/12/04 14:14:41;;;;;;;14.98;13.48;;;;;;;;;;5054496;28;20036;-74
2022/12/04 14:17:16;;;;;;;6.05;5.45;;;;;;;;;;5039512;28;20098;-73
2022/12/04 14:19:43;;;;;;;3.22;2.92;;;;;;;;;;5056758;28;20040;-73
2022/12/04 14:22:24;;;;;;;2.90;1.65;;;;;;;;;;5059076;28;20312;-74
2022/12/04 14:24:49;;;;;;;9.50;8.60;;;;;;;;;;5056243;28;20036;-73
2022/12/04 14:27:33;;;;;;;5.30;4.90;;;;;;;;;;5039376;28;20075;-73
2022/12/04 14:29:59;;;;;;;6.63;5.93;;;;;;;;;;5059301;28;20037;-72
2022/12/04 14:32:26;;;;;;;6.18;5.57;;;;;;;;;;5055715;28;20343;-74
2022/12/04 14:34:52;;;;;;;3.58;3.28;;;;;;;;;;5054535;28;20036;-72
2022/12/04 14:37:22;;;;;;;4.07;3.67;;;;;;;;;;5057003;28;20025;-72
2022/12/04 14:39:48;;;;;;;4.43;4.03;;;;;;;;;;5052246;28;20479;-72
2022/12/04 14:42:13;;;;;;;6.22;5.65;;;;;;;;;;5055758;28;20055;-73
2022/12/04 14:44:38;;;;;;;9.13;8.23;;;;;;;;;;5057967;28;20025;-74